createdAt,value
2023-03-10T00:01:33.371Z,6.12
2023-03-10T00:04:41.966Z,5.98
2023-03-10T00:07:34.549Z,6.18
2023-03-10T00:11:02.410Z,6.21
2023-03-10T00:13:59.470Z,6.31
2023-03-10T00:17:12.948Z,6.12
2023-03-10T00:21:23.008Z,6.18
2023-03-10T00:24:38.068Z,6.21
2023-03-10T00:28:01.123Z,6.15
2023-03-10T00:31:23.067Z,6.18
2023-03-10T00:34:52.760Z,6.26
2023-03-10T00:38:02.976Z,6.36
2023-03-10T00:41:48.078Z,6.09
2023-03-10T00:45:58.181Z,6.12
2023-03-10T00:49:57.609Z,5.76
2023-03-10T00:54:04.161Z,5.98
2023-03-10T00:58:10.072Z,6.06
2023-03-10T01:01:48.107Z,6.30
2023-03-10T01:05:20.873Z,6.14
2023-03-10T01:08:58.544Z,6.11
2023-03-10T01:12:56.550Z,6.09
2023-03-10T01:17:24.857Z,6.44
2023-03-10T01:21:19.980Z,6.38
2023-03-10T01:24:31.152Z,6.20
2023-03-10T01:27:50.936Z,6.22
2023-03-10T01:31:09.596Z,6.05
2023-03-10T01:34:08.534Z,6.05
2023-03-10T01:36:52.597Z,6.45
2023-03-10T01:39:34.051Z,6.65
2023-03-10T01:42:55.726Z,6.48
2023-03-10T01:46:47.688Z,6.51
2023-03-10T01:50:14.847Z,6.55
2023-03-10T01:53:01.443Z,6.39
2023-03-10T01:55:47.015Z,6.25
2023-03-10T01:58:22.629Z,6.24
2023-03-10T02:00:54.808Z,6.22
2023-03-10T02:03:44.248Z,6.43
2023-03-10T02:06:16.053Z,6.62
2023-03-10T02:08:52.418Z,6.52
2023-03-10T02:11:24.659Z,6.52
2023-03-10T02:13:56.304Z,6.38
2023-03-10T02:16:26.680Z,6.36
2023-03-10T02:18:55.633Z,6.45
2023-03-10T02:21:34.168Z,6.61
2023-03-10T02:24:06.525Z,6.59
2023-03-10T02:26:54.710Z,6.60
2023-03-10T02:29:52.487Z,6.63
2023-03-10T02:32:36.999Z,6.70
2023-03-10T02:35:11.042Z,6.73
2023-03-10T02:38:08.203Z,6.72
2023-03-10T02:40:58.756Z,6.59
2023-03-10T02:45:17.254Z,6.47
2023-03-10T02:48:17.177Z,6.48
2023-03-10T02:51:40.845Z,6.61
2023-03-10T02:54:31.728Z,6.35
2023-03-10T02:57:40.068Z,6.28
2023-03-10T03:00:22.080Z,6.22
2023-03-10T03:03:53.523Z,6.32
2023-03-10T03:06:52.708Z,6.25
2023-03-10T03:10:13.998Z,6.66
2023-03-10T03:13:17.361Z,6.68
2023-03-10T03:15:47.408Z,6.90
2023-03-10T03:20:01.112Z,6.56
2023-03-10T03:23:20.242Z,6.46
2023-03-10T03:27:10.433Z,6.04
2023-03-10T03:31:41.220Z,6.26
2023-03-10T03:35:10.605Z,6.24
2023-03-10T03:38:46.567Z,5.91
2023-03-10T03:42:37.422Z,5.94
2023-03-10T03:46:26.797Z,6.10
2023-03-10T03:49:56.764Z,5.97
2023-03-10T03:53:49.180Z,6.14
2023-03-10T03:57:40.275Z,6.34
2023-03-10T04:01:17.811Z,6.49
2023-03-10T04:09:49.135Z,6.31
2023-03-10T04:55:40.904Z,6.88
2023-03-10T05:00:03.475Z,6.95
2023-03-10T05:04:10.967Z,7.03
2023-03-10T05:08:28.180Z,6.96
2023-03-10T05:16:12.872Z,6.89
2023-03-10T05:20:02.002Z,7.06
2023-03-10T05:24:12.040Z,6.72
2023-03-10T05:28:55.167Z,6.92
2023-03-10T05:33:02.268Z,7.15
2023-03-10T05:37:09.939Z,7.26
2023-03-10T05:41:39.763Z,7.26
2023-03-10T05:45:46.150Z,7.31
2023-03-10T05:53:59.809Z,7.25
2023-03-10T05:57:33.694Z,7.17
2023-03-10T06:00:48.719Z,7.42
2023-03-10T06:04:10.264Z,7.36
2023-03-10T06:06:41.621Z,7.52
2023-03-10T06:09:34.773Z,7.67
2023-03-10T06:12:10.856Z,7.94
2023-03-10T06:14:44.383Z,7.86
2023-03-10T06:17:19.756Z,7.79
2023-03-10T06:19:53.045Z,7.90
2023-03-10T06:23:02.045Z,7.67
2023-03-10T06:26:34.544Z,7.63
2023-03-10T06:29:50.294Z,7.47
2023-03-10T06:34:05.333Z,7.61
2023-03-10T06:42:29.714Z,7.79
2023-03-10T06:46:35.578Z,8.04
2023-03-10T06:54:42.845Z,8.44
2023-03-10T06:58:53.916Z,8.29
2023-03-10T07:03:09.670Z,8.68
2023-03-10T07:06:48.915Z,8.84
2023-03-10T07:10:10.533Z,8.97
2023-03-10T07:13:17.204Z,9.10
2023-03-10T07:16:49.669Z,9.07
2023-03-10T07:21:00.930Z,9.15
2023-03-10T07:25:52.843Z,9.05
2023-03-10T07:29:59.981Z,9.11
2023-03-10T07:41:58.460Z,9.12
2023-03-10T07:46:01.943Z,9.36
2023-03-10T08:18:53.498Z,10.92
